sensor_id;sensor_type;location;lat;lon;timestamp;P1;durP1;ratioP1;P2;durP2;ratioP2
69053;SDS011;56125;52.242;4.756;2023-04-25T00:01:56;5.43;;;1.42;;
69053;SDS011;56125;52.242;4.756;2023-04-25T00:06:58;3.87;;;1.20;;
69053;SDS011;56125;52.242;4.756;2023-04-25T00:12:01;6.97;;;1.45;;
69053;SDS011;56125;52.242;4.756;2023-04-25T00:17:03;4.80;;;1.40;;
69053;SDS011;56125;52.242;4.756;2023-04-25T00:22:04;5.43;;;1.60;;
69053;SDS011;56125;52.242;4.756;2023-04-25T00:27:06;5.53;;;1.40;;
69053;SDS011;56125;52.242;4.756;2023-04-25T00:32:07;5.30;;;1.60;;
69053;SDS011;56125;52.242;4.756;2023-04-25T00:37:08;5.10;;;1.10;;
69053;SDS011;56125;52.242;4.756;2023-04-25T00:42:09;2.72;;;1.33;;
69053;SDS011;56125;52.242;4.756;2023-04-25T00:47:12;2.70;;;1.60;;
69053;SDS011;56125;52.242;4.756;2023-04-25T00:52:13;3.60;;;1.40;;
69053;SDS011;56125;52.242;4.756;2023-04-25T00:57:14;4.23;;;1.10;;
69053;SDS011;56125;52.242;4.756;2023-04-25T01:02:16;3.20;;;0.93;;
69053;SDS011;56125;52.242;4.756;2023-04-25T01:07:17;4.37;;;1.10;;
69053;SDS011;56125;52.242;4.756;2023-04-25T01:12:18;1.98;;;0.90;;
69053;SDS011;56125;52.242;4.756;2023-04-25T01:17:21;4.03;;;1.20;;
69053;SDS011;56125;52.242;4.756;2023-04-25T01:22:22;2.85;;;1.20;;
69053;SDS011;56125;52.242;4.756;2023-04-25T01:27:23;3.53;;;1.60;;
69053;SDS011;56125;52.242;4.756;2023-04-25T01:32:25;4.70;;;1.27;;
69053;SDS011;56125;52.242;4.756;2023-04-25T01:37:27;3.97;;;1.47;;
69053;SDS011;56125;52.242;4.756;2023-04-25T01:42:28;3.03;;;1.17;;
69053;SDS011;56125;52.242;4.756;2023-04-25T01:47:29;4.27;;;1.27;;
69053;SDS011;56125;52.242;4.756;2023-04-25T01:52:30;2.63;;;1.10;;
69053;SDS011;56125;52.242;4.756;2023-04-25T01:57:31;3.27;;;1.20;;
69053;SDS011;56125;52.242;4.756;2023-04-25T02:02:32;5.45;;;1.10;;
69053;SDS011;56125;52.242;4.756;2023-04-25T02:07:33;2.43;;;1.17;;
69053;SDS011;56125;52.242;4.756;2023-04-25T02:12:35;2.35;;;0.88;;
69053;SDS011;56125;52.242;4.756;2023-04-25T02:17:36;2.00;;;1.00;;
69053;SDS011;56125;52.242;4.756;2023-04-25T02:22:38;2.35;;;1.23;;
69053;SDS011;56125;52.242;4.756;2023-04-25T02:27:39;3.60;;;1.00;;
69053;SDS011;56125;52.242;4.756;2023-04-25T02:32:40;2.20;;;0.93;;
69053;SDS011;56125;52.242;4.756;2023-04-25T02:37:41;3.37;;;1.23;;
69053;SDS011;56125;52.242;4.756;2023-04-25T02:42:43;5.30;;;1.00;;
69053;SDS011;56125;52.242;4.756;2023-04-25T02:47:46;2.93;;;1.10;;
69053;SDS011;56125;52.242;4.756;2023-04-25T02:52:47;3.63;;;1.15;;
69053;SDS011;56125;52.242;4.756;2023-04-25T02:57:48;3.87;;;1.07;;
69053;SDS011;56125;52.242;4.756;2023-04-25T03:02:49;4.68;;;1.20;;
69053;SDS011;56125;52.242;4.756;2023-04-25T03:07:50;3.07;;;1.00;;
69053;SDS011;56125;52.242;4.756;2023-04-25T03:12:51;2.85;;;1.00;;
69053;SDS011;56125;52.242;4.756;2023-04-25T03:17:52;1.90;;;1.00;;
69053;SDS011;56125;52.242;4.756;2023-04-25T03:22:53;2.28;;;1.02;;
69053;SDS011;56125;52.242;4.756;2023-04-25T03:27:54;4.47;;;1.07;;
69053;SDS011;56125;52.242;4.756;2023-04-25T03:32:55;4.00;;;1.23;;
69053;SDS011;56125;52.242;4.756;2023-04-25T03:37:56;2.70;;;1.00;;
69053;SDS011;56125;52.242;4.756;2023-04-25T03:42:57;2.60;;;0.98;;
69053;SDS011;56125;52.242;4.756;2023-04-25T03:47:58;2.57;;;0.93;;
69053;SDS011;56125;52.242;4.756;2023-04-25T03:53:00;2.40;;;0.90;;
69053;SDS011;56125;52.242;4.756;2023-04-25T03:58:02;1.83;;;1.00;;
69053;SDS011;56125;52.242;4.756;2023-04-25T04:03:03;2.83;;;0.90;;
69053;SDS011;56125;52.242;4.756;2023-04-25T04:08:04;2.10;;;1.00;;
69053;SDS011;56125;52.242;4.756;2023-04-25T04:13:05;1.80;;;0.90;;
69053;SDS011;56125;52.242;4.756;2023-04-25T04:18:06;3.30;;;1.00;;
69053;SDS011;56125;52.242;4.756;2023-04-25T04:23:07;2.92;;;1.02;;
69053;SDS011;56125;52.242;4.756;2023-04-25T04:28:08;1.63;;;1.00;;
69053;SDS011;56125;52.242;4.756;2023-04-25T04:33:11;2.97;;;1.30;;
69053;SDS011;56125;52.242;4.756;2023-04-25T04:38:12;2.47;;;0.80;;
69053;SDS011;56125;52.242;4.756;2023-04-25T04:43:15;1.83;;;0.80;;
69053;SDS011;56125;52.242;4.756;2023-04-25T04:48:17;2.50;;;1.00;;
69053;SDS011;56125;52.242;4.756;2023-04-25T04:53:18;2.03;;;0.93;;
69053;SDS011;56125;52.242;4.756;2023-04-25T04:58:19;2.40;;;0.90;;
69053;SDS011;56125;52.242;4.756;2023-04-25T05:03:22;3.25;;;0.75;;
69053;SDS011;56125;52.242;4.756;2023-04-25T05:08:23;1.50;;;0.87;;
69053;SDS011;56125;52.242;4.756;2023-04-25T05:13:24;1.70;;;0.80;;
69053;SDS011;56125;52.242;4.756;2023-04-25T05:18:25;3.20;;;0.93;;
69053;SDS011;56125;52.242;4.756;2023-04-25T05:23:26;1.48;;;0.63;;
69053;SDS011;56125;52.242;4.756;2023-04-25T05:28:28;1.33;;;0.87;;
69053;SDS011;56125;52.242;4.756;2023-04-25T05:33:29;2.55;;;0.80;;
69053;SDS011;56125;52.242;4.756;2023-04-25T05:38:30;1.57;;;0.60;;
69053;SDS011;56125;52.242;4.756;2023-04-25T05:43:31;3.47;;;0.85;;
69053;SDS011;56125;52.242;4.756;2023-04-25T05:48:32;1.23;;;0.80;;
69053;SDS011;56125;52.242;4.756;2023-04-25T05:53:33;2.38;;;0.98;;
69053;SDS011;56125;52.242;4.756;2023-04-25T05:58:34;1.70;;;0.80;;
69053;SDS011;56125;52.242;4.756;2023-04-25T06:03:35;2.45;;;0.90;;
69053;SDS011;56125;52.242;4.756;2023-04-25T06:08:38;2.50;;;0.90;;
69053;SDS011;56125;52.242;4.756;2023-04-25T06:13:39;2.00;;;0.90;;
69053;SDS011;56125;52.242;4.756;2023-04-25T06:18:40;3.07;;;0.83;;
69053;SDS011;56125;52.242;4.756;2023-04-25T06:23:41;1.40;;;0.90;;
69053;SDS011;56125;52.242;4.756;2023-04-25T06:28:42;1.60;;;0.80;;
69053;SDS011;56125;52.242;4.756;2023-04-25T06:33:43;3.50;;;0.80;;
69053;SDS011;56125;52.242;4.756;2023-04-25T06:38:44;2.67;;;1.00;;
69053;SDS011;56125;52.242;4.756;2023-04-25T06:43:45;1.98;;;0.88;;
69053;SDS011;56125;52.242;4.756;2023-04-25T06:48:46;3.97;;;0.97;;
69053;SDS011;56125;52.242;4.756;2023-04-25T06:53:47;1.10;;;0.60;;
69053;SDS011;56125;52.242;4.756;2023-04-25T06:58:49;3.53;;;0.80;;
69053;SDS011;56125;52.242;4.756;2023-04-25T07:03:50;1.65;;;0.82;;
69053;SDS011;56125;52.242;4.756;2023-04-25T07:08:51;2.37;;;1.00;;
69053;SDS011;56125;52.242;4.756;2023-04-25T07:13:52;2.55;;;0.77;;
69053;SDS011;56125;52.242;4.756;2023-04-25T07:18:53;2.30;;;0.70;;
69053;SDS011;56125;52.242;4.756;2023-04-25T07:23:54;2.25;;;0.80;;
69053;SDS011;56125;52.242;4.756;2023-04-25T07:28:55;1.30;;;0.67;;
69053;SDS011;56125;52.242;4.756;2023-04-25T07:33:56;2.95;;;0.80;;
69053;SDS011;56125;52.242;4.756;2023-04-25T07:38:57;2.33;;;0.80;;
69053;SDS011;56125;52.242;4.756;2023-04-25T07:43:58;1.98;;;0.95;;
69053;SDS011;56125;52.242;4.756;2023-04-25T07:49:00;2.00;;;0.83;;
69053;SDS011;56125;52.242;4.756;2023-04-25T07:54:01;3.78;;;0.98;;
69053;SDS011;56125;52.242;4.756;2023-04-25T07:59:02;3.97;;;0.90;;
69053;SDS011;56125;52.242;4.756;2023-04-25T08:04:03;1.35;;;0.60;;
69053;SDS011;56125;52.242;4.756;2023-04-25T08:09:04;2.50;;;1.00;;
69053;SDS011;56125;52.242;4.756;2023-04-25T08:14:05;3.80;;;0.90;;
69053;SDS011;56125;52.242;4.756;2023-04-25T08:19:06;1.87;;;0.80;;
69053;SDS011;56125;52.242;4.756;2023-04-25T08:24:07;2.92;;;0.90;;
69053;SDS011;56125;52.242;4.756;2023-04-25T08:29:08;2.37;;;0.80;;
69053;SDS011;56125;52.242;4.756;2023-04-25T08:34:09;2.50;;;0.90;;
69053;SDS011;56125;52.242;4.756;2023-04-25T08:39:11;1.40;;;0.83;;
69053;SDS011;56125;52.242;4.756;2023-04-25T08:44:13;3.80;;;1.10;;
69053;SDS011;56125;52.242;4.756;2023-04-25T08:49:16;3.40;;;1.00;;
69053;SDS011;56125;52.242;4.756;2023-04-25T08:54:19;3.90;;;1.10;;
69053;SDS011;56125;52.242;4.756;2023-04-25T08:59:25;3.43;;;1.00;;
69053;SDS011;56125;52.242;4.756;2023-04-25T09:04:27;3.28;;;1.00;;
69053;SDS011;56125;52.242;4.756;2023-04-25T09:09:30;3.40;;;1.20;;
69053;SDS011;56125;52.242;4.756;2023-04-25T09:14:31;3.35;;;1.23;;
69053;SDS011;56125;52.242;4.756;2023-04-25T09:19:32;3.20;;;1.07;;
69053;SDS011;56125;52.242;4.756;2023-04-25T09:24:36;2.92;;;1.00;;
69053;SDS011;56125;52.242;4.756;2023-04-25T09:29:46;2.03;;;1.10;;
69053;SDS011;56125;52.242;4.756;2023-04-25T09:34:48;3.78;;;1.20;;
69053;SDS011;56125;52.242;4.756;2023-04-25T09:39:54;3.00;;;0.90;;
69053;SDS011;56125;52.242;4.756;2023-04-25T09:45:05;3.63;;;1.10;;
69053;SDS011;56125;52.242;4.756;2023-04-25T09:50:14;2.83;;;0.87;;
69053;SDS011;56125;52.242;4.756;2023-04-25T09:55:16;3.65;;;1.10;;
69053;SDS011;56125;52.242;4.756;2023-04-25T10:00:17;4.00;;;0.80;;
69053;SDS011;56125;52.242;4.756;2023-04-25T10:05:20;2.55;;;0.85;;
69053;SDS011;56125;52.242;4.756;2023-04-25T10:10:21;2.80;;;0.90;;
69053;SDS011;56125;52.242;4.756;2023-04-25T10:15:26;3.63;;;1.10;;
69053;SDS011;56125;52.242;4.756;2023-04-25T10:20:28;2.57;;;0.97;;
69053;SDS011;56125;52.242;4.756;2023-04-25T10:25:30;2.05;;;1.00;;
69053;SDS011;56125;52.242;4.756;2023-04-25T10:30:31;3.30;;;1.07;;
69053;SDS011;56125;52.242;4.756;2023-04-25T10:35:32;1.85;;;0.98;;
69053;SDS011;56125;52.242;4.756;2023-04-25T10:40:35;2.43;;;0.97;;
69053;SDS011;56125;52.242;4.756;2023-04-25T10:45:52;1.73;;;0.70;;
69053;SDS011;56125;52.242;4.756;2023-04-25T10:51:07;3.17;;;0.83;;
69053;SDS011;56125;52.242;4.756;2023-04-25T10:56:18;2.85;;;1.08;;
69053;SDS011;56125;52.242;4.756;2023-04-25T11:01:21;3.77;;;1.20;;
69053;SDS011;56125;52.242;4.756;2023-04-25T11:11:53;2.90;;;0.90;;
69053;SDS011;56125;52.242;4.756;2023-04-25T11:16:58;5.25;;;0.77;;
69053;SDS011;56125;52.242;4.756;2023-04-25T11:22:01;4.03;;;1.10;;
69053;SDS011;56125;52.242;4.756;2023-04-25T11:27:03;2.03;;;0.90;;
69053;SDS011;56125;52.242;4.756;2023-04-25T11:32:06;3.53;;;1.00;;
69053;SDS011;56125;52.242;4.756;2023-04-25T11:37:07;4.68;;;0.82;;
69053;SDS011;56125;52.242;4.756;2023-04-25T11:42:09;4.50;;;0.80;;
69053;SDS011;56125;52.242;4.756;2023-04-25T11:47:10;5.32;;;0.60;;
69053;SDS011;56125;52.242;4.756;2023-04-25T11:52:11;4.33;;;0.60;;
69053;SDS011;56125;52.242;4.756;2023-04-25T11:57:12;3.90;;;0.82;;
69053;SDS011;56125;52.242;4.756;2023-04-25T12:02:25;2.60;;;0.80;;
69053;SDS011;56125;52.242;4.756;2023-04-25T12:07:30;3.38;;;0.80;;
69053;SDS011;56125;52.242;4.756;2023-04-25T12:12:34;2.83;;;0.70;;
69053;SDS011;56125;52.242;4.756;2023-04-25T12:17:36;2.55;;;0.80;;
69053;SDS011;56125;52.242;4.756;2023-04-25T12:22:40;1.80;;;0.97;;
69053;SDS011;56125;52.242;4.756;2023-04-25T12:27:45;3.10;;;0.93;;
69053;SDS011;56125;52.242;4.756;2023-04-25T12:32:47;1.93;;;0.70;;
69053;SDS011;56125;52.242;4.756;2023-04-25T12:37:48;1.67;;;0.80;;
69053;SDS011;56125;52.242;4.756;2023-04-25T12:42:49;2.27;;;0.70;;
69053;SDS011;56125;52.242;4.756;2023-04-25T12:47:51;2.35;;;0.77;;
69053;SDS011;56125;52.242;4.756;2023-04-25T12:52:52;5.20;;;0.93;;
69053;SDS011;56125;52.242;4.756;2023-04-25T12:57:53;3.28;;;0.93;;
69053;SDS011;56125;52.242;4.756;2023-04-25T13:02:54;3.47;;;0.77;;
69053;SDS011;56125;52.242;4.756;2023-04-25T13:07:55;3.60;;;0.90;;
69053;SDS011;56125;52.242;4.756;2023-04-25T13:12:57;1.07;;;0.70;;
69053;SDS011;56125;52.242;4.756;2023-04-25T13:17:58;3.22;;;0.93;;
69053;SDS011;56125;52.242;4.756;2023-04-25T13:22:59;3.00;;;1.00;;
69053;SDS011;56125;52.242;4.756;2023-04-25T13:28:00;3.17;;;0.80;;
69053;SDS011;56125;52.242;4.756;2023-04-25T13:33:01;2.63;;;0.93;;
69053;SDS011;56125;52.242;4.756;2023-04-25T13:38:03;2.03;;;0.70;;
69053;SDS011;56125;52.242;4.756;2023-04-25T13:43:05;2.50;;;0.70;;
69053;SDS011;56125;52.242;4.756;2023-04-25T13:48:06;2.17;;;0.50;;
69053;SDS011;56125;52.242;4.756;2023-04-25T13:53:07;1.80;;;0.70;;
69053;SDS011;56125;52.242;4.756;2023-04-25T13:58:08;2.80;;;0.68;;
69053;SDS011;56125;52.242;4.756;2023-04-25T14:03:10;2.93;;;0.80;;
69053;SDS011;56125;52.242;4.756;2023-04-25T14:08:11;2.17;;;0.70;;
69053;SDS011;56125;52.242;4.756;2023-04-25T14:13:12;3.20;;;0.80;;
69053;SDS011;56125;52.242;4.756;2023-04-25T14:18:13;2.45;;;0.93;;
69053;SDS011;56125;52.242;4.756;2023-04-25T14:23:14;2.30;;;0.83;;
69053;SDS011;56125;52.242;4.756;2023-04-25T14:28:15;2.65;;;0.73;;
69053;SDS011;56125;52.242;4.756;2023-04-25T14:33:16;3.33;;;0.73;;
69053;SDS011;56125;52.242;4.756;2023-04-25T14:38:17;2.05;;;0.80;;
69053;SDS011;56125;52.242;4.756;2023-04-25T14:43:23;2.53;;;0.80;;
69053;SDS011;56125;52.242;4.756;2023-04-25T14:48:24;4.35;;;0.82;;
69053;SDS011;56125;52.242;4.756;2023-04-25T14:53:25;3.33;;;0.90;;
69053;SDS011;56125;52.242;4.756;2023-04-25T14:58:27;2.20;;;0.90;;
69053;SDS011;56125;52.242;4.756;2023-04-25T15:03:28;1.83;;;0.83;;
69053;SDS011;56125;52.242;4.756;2023-04-25T15:08:29;1.42;;;0.77;;
69053;SDS011;56125;52.242;4.756;2023-04-25T15:13:30;3.60;;;1.20;;
69053;SDS011;56125;52.242;4.756;2023-04-25T15:18:32;2.45;;;1.45;;
69053;SDS011;56125;52.242;4.756;2023-04-25T15:23:33;2.23;;;0.80;;
69053;SDS011;56125;52.242;4.756;2023-04-25T15:28:34;2.28;;;0.80;;
69053;SDS011;56125;52.242;4.756;2023-04-25T15:33:35;2.57;;;0.90;;
69053;SDS011;56125;52.242;4.756;2023-04-25T15:38:36;1.83;;;0.80;;
69053;SDS011;56125;52.242;4.756;2023-04-25T15:43:37;3.23;;;1.00;;
69053;SDS011;56125;52.242;4.756;2023-04-25T15:48:39;1.52;;;0.60;;
69053;SDS011;56125;52.242;4.756;2023-04-25T15:53:40;1.93;;;0.63;;
69053;SDS011;56125;52.242;4.756;2023-04-25T15:58:41;2.60;;;0.93;;
69053;SDS011;56125;52.242;4.756;2023-04-25T16:03:42;2.83;;;0.80;;
69053;SDS011;56125;52.242;4.756;2023-04-25T16:08:43;3.50;;;1.23;;
69053;SDS011;56125;52.242;4.756;2023-04-25T16:13:44;3.93;;;0.97;;
69053;SDS011;56125;52.242;4.756;2023-04-25T16:18:45;2.90;;;0.90;;
69053;SDS011;56125;52.242;4.756;2023-04-25T16:23:46;3.10;;;0.90;;
69053;SDS011;56125;52.242;4.756;2023-04-25T16:28:47;1.40;;;0.90;;
69053;SDS011;56125;52.242;4.756;2023-04-25T16:33:48;1.83;;;0.73;;
69053;SDS011;56125;52.242;4.756;2023-04-25T16:38:50;4.43;;;0.98;;
69053;SDS011;56125;52.242;4.756;2023-04-25T16:43:51;1.60;;;1.00;;
69053;SDS011;56125;52.242;4.756;2023-04-25T16:48:52;2.70;;;0.90;;
69053;SDS011;56125;52.242;4.756;2023-04-25T16:53:53;2.43;;;0.90;;
69053;SDS011;56125;52.242;4.756;2023-04-25T16:58:55;1.05;;;0.70;;
69053;SDS011;56125;52.242;4.756;2023-04-25T17:03:56;3.60;;;1.20;;
69053;SDS011;56125;52.242;4.756;2023-04-25T17:08:57;2.72;;;1.02;;
69053;SDS011;56125;52.242;4.756;2023-04-25T17:13:58;3.73;;;1.20;;
69053;SDS011;56125;52.242;4.756;2023-04-25T17:18:59;3.05;;;1.27;;
69053;SDS011;56125;52.242;4.756;2023-04-25T17:24:00;2.43;;;1.10;;
69053;SDS011;56125;52.242;4.756;2023-04-25T17:29:05;2.75;;;0.70;;
69053;SDS011;56125;52.242;4.756;2023-04-25T17:34:06;2.13;;;1.10;;
69053;SDS011;56125;52.242;4.756;2023-04-25T17:39:08;4.15;;;1.20;;
69053;SDS011;56125;52.242;4.756;2023-04-25T17:44:10;2.70;;;1.17;;
69053;SDS011;56125;52.242;4.756;2023-04-25T17:49:11;2.78;;;1.00;;
69053;SDS011;56125;52.242;4.756;2023-04-25T17:54:12;5.07;;;1.27;;
69053;SDS011;56125;52.242;4.756;2023-04-25T17:59:14;2.50;;;1.30;;
69053;SDS011;56125;52.242;4.756;2023-04-25T18:04:15;2.40;;;1.47;;
69053;SDS011;56125;52.242;4.756;2023-04-25T18:09:17;1.67;;;1.10;;
69053;SDS011;56125;52.242;4.756;2023-04-25T18:14:22;2.13;;;1.20;;
69053;SDS011;56125;52.242;4.756;2023-04-25T18:19:24;3.35;;;1.20;;
69053;SDS011;56125;52.242;4.756;2023-04-25T18:24:25;1.20;;;0.90;;
69053;SDS011;56125;52.242;4.756;2023-04-25T18:29:27;2.90;;;1.20;;
69053;SDS011;56125;52.242;4.756;2023-04-25T18:34:29;5.40;;;1.20;;
69053;SDS011;56125;52.242;4.756;2023-04-25T18:39:30;3.70;;;1.65;;
69053;SDS011;56125;52.242;4.756;2023-04-25T18:44:31;4.03;;;1.40;;
69053;SDS011;56125;52.242;4.756;2023-04-25T18:49:35;3.53;;;1.30;;
69053;SDS011;56125;52.242;4.756;2023-04-25T18:54:39;3.77;;;1.40;;
69053;SDS011;56125;52.242;4.756;2023-04-25T18:59:42;1.75;;;0.98;;
69053;SDS011;56125;52.242;4.756;2023-04-25T19:04:44;3.50;;;1.30;;
69053;SDS011;56125;52.242;4.756;2023-04-25T19:09:46;5.15;;;1.55;;
69053;SDS011;56125;52.242;4.756;2023-04-25T19:14:47;3.47;;;1.57;;
69053;SDS011;56125;52.242;4.756;2023-04-25T19:19:49;3.83;;;1.30;;
69053;SDS011;56125;52.242;4.756;2023-04-25T19:24:51;2.07;;;1.40;;
69053;SDS011;56125;52.242;4.756;2023-04-25T19:29:52;5.20;;;1.88;;
69053;SDS011;56125;52.242;4.756;2023-04-25T19:34:58;4.40;;;1.17;;
69053;SDS011;56125;52.242;4.756;2023-04-25T19:40:00;3.10;;;1.50;;
69053;SDS011;56125;52.242;4.756;2023-04-25T19:45:01;2.37;;;1.00;;
69053;SDS011;56125;52.242;4.756;2023-04-25T19:50:03;2.28;;;1.20;;
69053;SDS011;56125;52.242;4.756;2023-04-25T19:55:08;5.03;;;1.63;;
69053;SDS011;56125;52.242;4.756;2023-04-25T20:00:11;3.65;;;1.45;;
69053;SDS011;56125;52.242;4.756;2023-04-25T20:05:14;3.77;;;1.30;;
69053;SDS011;56125;52.242;4.756;2023-04-25T20:10:16;2.30;;;1.30;;
69053;SDS011;56125;52.242;4.756;2023-04-25T20:15:17;3.53;;;1.50;;
69053;SDS011;56125;52.242;4.756;2023-04-25T20:20:18;1.77;;;1.20;;
69053;SDS011;56125;52.242;4.756;2023-04-25T20:25:19;2.83;;;1.30;;
69053;SDS011;56125;52.242;4.756;2023-04-25T20:30:21;4.40;;;1.75;;
69053;SDS011;56125;52.242;4.756;2023-04-25T20:35:22;2.77;;;1.13;;
69053;SDS011;56125;52.242;4.756;2023-04-25T20:40:23;2.97;;;1.40;;
69053;SDS011;56125;52.242;4.756;2023-04-25T20:45:24;3.33;;;1.43;;
69053;SDS011;56125;52.242;4.756;2023-04-25T20:50:29;4.35;;;1.60;;
69053;SDS011;56125;52.242;4.756;2023-04-25T20:55:32;3.83;;;1.30;;
69053;SDS011;56125;52.242;4.756;2023-04-25T21:00:33;2.50;;;1.48;;
69053;SDS011;56125;52.242;4.756;2023-04-25T21:05:34;2.87;;;1.30;;
69053;SDS011;56125;52.242;4.756;2023-04-25T21:10:35;3.55;;;1.27;;
69053;SDS011;56125;52.242;4.756;2023-04-25T21:15:37;2.83;;;1.40;;
69053;SDS011;56125;52.242;4.756;2023-04-25T21:20:38;3.30;;;1.50;;
69053;SDS011;56125;52.242;4.756;2023-04-25T21:25:39;2.43;;;1.40;;
69053;SDS011;56125;52.242;4.756;2023-04-25T21:30:41;2.38;;;1.25;;
69053;SDS011;56125;52.242;4.756;2023-04-25T21:35:42;2.27;;;1.30;;
69053;SDS011;56125;52.242;4.756;2023-04-25T21:40:43;4.10;;;1.27;;
69053;SDS011;56125;52.242;4.756;2023-04-25T21:45:45;3.87;;;1.30;;
69053;SDS011;56125;52.242;4.756;2023-04-25T21:50:46;2.60;;;1.10;;
69053;SDS011;56125;52.242;4.756;2023-04-25T21:55:47;2.60;;;1.40;;
69053;SDS011;56125;52.242;4.756;2023-04-25T22:00:48;3.45;;;1.38;;
69053;SDS011;56125;52.242;4.756;2023-04-25T22:05:50;2.33;;;1.23;;
69053;SDS011;56125;52.242;4.756;2023-04-25T22:10:51;2.92;;;1.50;;
69053;SDS011;56125;52.242;4.756;2023-04-25T22:15:54;3.23;;;1.80;;
69053;SDS011;56125;52.242;4.756;2023-04-25T22:20:55;1.80;;;1.15;;
69053;SDS011;56125;52.242;4.756;2023-04-25T22:25:56;1.93;;;1.30;;
69053;SDS011;56125;52.242;4.756;2023-04-25T22:30:57;3.97;;;1.45;;
69053;SDS011;56125;52.242;4.756;2023-04-25T22:35:58;4.90;;;1.40;;
69053;SDS011;56125;52.242;4.756;2023-04-25T22:40:59;3.63;;;1.23;;
69053;SDS011;56125;52.242;4.756;2023-04-25T22:46:00;3.87;;;1.20;;
69053;SDS011;56125;52.242;4.756;2023-04-25T22:51:02;1.67;;;1.08;;
69053;SDS011;56125;52.242;4.756;2023-04-25T22:56:04;3.40;;;1.27;;
69053;SDS011;56125;52.242;4.756;2023-04-25T23:01:06;1.98;;;1.08;;
69053;SDS011;56125;52.242;4.756;2023-04-25T23:06:08;2.07;;;1.10;;
69053;SDS011;56125;52.242;4.756;2023-04-25T23:11:09;2.15;;;1.00;;
69053;SDS011;56125;52.242;4.756;2023-04-25T23:16:10;1.63;;;1.23;;
69053;SDS011;56125;52.242;4.756;2023-04-25T23:21:11;2.40;;;1.15;;
69053;SDS011;56125;52.242;4.756;2023-04-25T23:26:13;1.83;;;0.90;;
69053;SDS011;56125;52.242;4.756;2023-04-25T23:31:14;1.35;;;1.02;;
69053;SDS011;56125;52.242;4.756;2023-04-25T23:36:16;4.73;;;1.00;;
69053;SDS011;56125;52.242;4.756;2023-04-25T23:41:20;1.35;;;0.90;;
69053;SDS011;56125;52.242;4.756;2023-04-25T23:46:22;2.60;;;1.10;;
69053;SDS011;56125;52.242;4.756;2023-04-25T23:51:23;2.33;;;1.00;;
69053;SDS011;56125;52.242;4.756;2023-04-25T23:56:25;3.73;;;1.20;;
